Pernille — 5BNZ2 — position and weather

sailwx.info

Track history (hours):
 
Tides and Currents Weather Stations Pressure Air Temp Water Temp Dewpoint Dewpoint Depression Visibility Wind Speed Wind Dir Waves Ship Positions

Pernille

Last reported at 2015-Apr-25 04:08 UTC. Time now 2015-May-06 01:23 UTC.
Position N 57°19' E 017°42'.
Warning: this ship's position is 10 days out of date.

Length 82 m; draft 4 m.

Type: Cargo ship. MMSI: 212662000.

Date/timePositionNaut miles runAvg speedWind from/ knotsBaromVisibWave heightAir tempDewpointWater temp
2015-Apr-25 04:08N 57°19' E 017°42'12210.1
2015-Apr-24 16:08N 55°40' E 015°32'711.3
2015-Apr-24 15:33N 55°37' E 015°22'1111.0
2015-Apr-24 14:33N 55°31' E 015°06'1111.1
2015-Apr-24 13:33N 55°26' E 014°48'1110.8
2015-Apr-24 12:32N 55°19' E 014°34'1110.7
2015-Apr-24 11:32N 55°12' E 014°20'4310.8
2015-Apr-24 07:33N 55°14' E 013°05'1110.8
2015-Apr-24 06:33N 55°16' E 012°46'9 8.8
2015-Apr-24 05:33N 55°24' E 012°40'1111.4
2015-Apr-24 04:33N 55°35' E 012°42'1111.5
2015-Apr-24 03:33N 55°47' E 012°41'1111.1
2015-Apr-24 02:33N 55°58' E 012°38'1010.0
2015-Apr-24 01:33N 56°07' E 012°31'1111.0
2015-Apr-24 00:33N 56°11' E 012°12'117 3.0
2015-Apr-22 09:20N 54°31' E 010°25'810.6
2015-Apr-22 08:34N 54°26' E 010°14'5 5.1
2015-Apr-22 07:33N 54°22' E 010°08'3 3.2
2015-Apr-22 06:33N 54°22' E 010°03'8 7.8
2015-Apr-22 05:32N 54°22' E 009°49'24 7.7
2015-Apr-22 02:29N 54°06' E 009°20'8 8.5
2015-Apr-22 01:33N 53°58' E 009°16'6 6.2
2015-Apr-22 00:33N 53°54' E 009°09'1 1.5
2015-Apr-21 23:33N 53°53' E 009°06'1 1.0
2015-Apr-21 22:34N 53°53' E 009°05'0 0.4
2015-Apr-21 21:33N 53°53' E 009°04'1 0.7
2015-Apr-21 20:33N 53°52' E 009°03'2 2.3
2015-Apr-21 19:34N 53°51' E 008°60'7 6.6
2015-Apr-21 18:33N 53°50' E 008°49'6 6.5
2015-Apr-21 17:34N 53°55' E 008°41'7 7.0
2015-Apr-21 16:34N 53°58' E 008°30'8 8.0
2015-Apr-21 15:33N 53°59' E 008°17'11 8.9
2015-Apr-21 14:18N 53°57' E 007°58'810.1
2015-Apr-21 13:33N 53°56' E 007°46'1110.8
2015-Apr-21 12:33N 53°53' E 007°28'1311.3
2015-Apr-21 11:24N 53°50' E 007°06'2211.8
2015-Apr-21 09:33N 53°45' E 006°30'1311.9
2015-Apr-21 08:29N 53°42' E 006°10'1111.8
2015-Apr-21 07:33N 53°38' E 005°52'1211.8
2015-Apr-21 06:33N 53°35' E 005°33'1211.9
2015-Apr-21 05:33N 53°31' E 005°14'1111.1
2015-Apr-21 04:34N 53°27' E 004°57'1010.2
2015-Apr-21 03:33N 53°22' E 004°42'29 9.7
2015-Apr-21 00:33N 52°57' E 004°18'11 9.5
2015-Apr-20 23:25N 52°47' E 004°09'9 9.5
2015-Apr-20 22:31N 52°41' E 003°59'9 9.3
2015-Apr-20 21:33N 52°34' E 003°49'9 9.3
2015-Apr-20 20:32N 52°27' E 003°39'1010.0
2015-Apr-20 19:31N 52°20' E 003°27'1210.8
2015-Apr-20 18:27N 52°12' E 003°14'3611.9
2015-Apr-20 15:24N 51°44' E 002°36'1112.6
2015-Apr-20 14:33N 51°36' E 002°25'1212.6
2015-Apr-20 13:34N 51°26' E 002°14'1212.4
2015-Apr-20 12:34N 51°15' E 002°04'1312.7
2015-Apr-20 11:34N 51°07' E 001°49'1211.8
2015-Apr-20 10:34N 50°58' E 001°36'10 9.8
2015-Apr-20 09:33N 50°50' E 001°27'299 9.1
2015-Apr-19 00:33N 48°46' W 005°34'6 6.0
2015-Apr-18 23:33N 48°41' W 005°39'11 5.3
2015-Apr-18 21:33N 48°32' W 005°47'26 6.5
2015-Apr-18 17:33N 48°06' W 005°43'25310.8
2015-Apr-17 18:07N 43°52' W 005°40'610.9
2015-Apr-17 17:32N 43°46' W 005°41'1110.8
2015-Apr-17 16:33N 43°35' W 005°40'2 2.0
2015-Apr-17 15:31N 43°34' W 005°42'0 0.0
2015-Apr-17 14:25N 43°34' W 005°42'0 0.0
2015-Apr-17 12:19N 43°34' W 005°42'0 0.0
2015-Apr-17 11:31N 43°34' W 005°42'0 0.0
2015-Apr-17 10:25N 43°34' W 005°42'0 0.0
2015-Apr-17 09:14N 43°34' W 005°42'0 0.0
2015-Apr-17 06:30N 43°34' W 005°42'0 0.0
2015-Apr-17 05:30N 43°34' W 005°42'0 0.0
2015-Apr-17 04:30N 43°34' W 005°42'0 0.0
2015-Apr-17 03:30N 43°34' W 005°42'0 0.0
2015-Apr-17 02:30N 43°34' W 005°42'0 0.0
2015-Apr-17 01:30N 43°34' W 005°42'0 0.0
2015-Apr-17 00:30N 43°34' W 005°42'1 1.4
2015-Apr-16 23:33N 43°34' W 005°40'2 0.8
2015-Apr-16 21:03N 43°36' W 005°42'0 0.0
2015-Apr-16 20:33N 43°36' W 005°42'0 0.0
2015-Apr-16 19:33N 43°36' W 005°42'0 0.0
2015-Apr-16 16:33N 43°36' W 005°42'0 0.0
2015-Apr-16 13:27N 43°36' W 005°42'0 0.1
2015-Apr-16 12:33N 43°36' W 005°42'0 0.0
2015-Apr-16 11:27N 43°36' W 005°42'0 0.1
2015-Apr-16 10:27N 43°36' W 005°42'0 0.0
2015-Apr-16 09:34N 43°36' W 005°42'9 8.7
2015-Apr-16 08:33N 43°37' W 005°30'1111.0
2015-Apr-16 07:33N 43°38' W 005°15'  
Track history (hours):
 
Tides and Currents Weather Stations Pressure Air Temp Water Temp Dewpoint Dewpoint Depression Visibility Wind Speed Wind Dir Waves Ship Positions

Pernille

Last reported at 2015-Apr-25 04:08 UTC. Time now 2015-May-06 01:23 UTC.
Position N 57°19' E 017°42'.
Warning: this ship's position is 10 days out of date.

Length 82 m; draft 4 m.

Type: Cargo ship. MMSI: 212662000.

Date/timePositionNaut miles runAvg speedWind from/ knotsBaromVisibWave heightAir tempDewpointWater temp
2015-Apr-25 04:08N 57°19' E 017°42'12210.1
2015-Apr-24 16:08N 55°40' E 015°32'711.3
2015-Apr-24 15:33N 55°37' E 015°22'1111.0
2015-Apr-24 14:33N 55°31' E 015°06'1111.1
2015-Apr-24 13:33N 55°26' E 014°48'1110.8
2015-Apr-24 12:32N 55°19' E 014°34'1110.7
2015-Apr-24 11:32N 55°12' E 014°20'4310.8
2015-Apr-24 07:33N 55°14' E 013°05'1110.8
2015-Apr-24 06:33N 55°16' E 012°46'9 8.8
2015-Apr-24 05:33N 55°24' E 012°40'1111.4
2015-Apr-24 04:33N 55°35' E 012°42'1111.5
2015-Apr-24 03:33N 55°47' E 012°41'1111.1
2015-Apr-24 02:33N 55°58' E 012°38'1010.0
2015-Apr-24 01:33N 56°07' E 012°31'1111.0
2015-Apr-24 00:33N 56°11' E 012°12'117 3.0
2015-Apr-22 09:20N 54°31' E 010°25'810.6
2015-Apr-22 08:34N 54°26' E 010°14'5 5.1
2015-Apr-22 07:33N 54°22' E 010°08'3 3.2
2015-Apr-22 06:33N 54°22' E 010°03'8 7.8
2015-Apr-22 05:32N 54°22' E 009°49'24 7.7
2015-Apr-22 02:29N 54°06' E 009°20'8 8.5
2015-Apr-22 01:33N 53°58' E 009°16'6 6.2
2015-Apr-22 00:33N 53°54' E 009°09'1 1.5
2015-Apr-21 23:33N 53°53' E 009°06'1 1.0
2015-Apr-21 22:34N 53°53' E 009°05'0 0.4
2015-Apr-21 21:33N 53°53' E 009°04'1 0.7
2015-Apr-21 20:33N 53°52' E 009°03'2 2.3
2015-Apr-21 19:34N 53°51' E 008°60'7 6.6
2015-Apr-21 18:33N 53°50' E 008°49'6 6.5
2015-Apr-21 17:34N 53°55' E 008°41'7 7.0
2015-Apr-21 16:34N 53°58' E 008°30'8 8.0
2015-Apr-21 15:33N 53°59' E 008°17'11 8.9
2015-Apr-21 14:18N 53°57' E 007°58'810.1
2015-Apr-21 13:33N 53°56' E 007°46'1110.8
2015-Apr-21 12:33N 53°53' E 007°28'1311.3
2015-Apr-21 11:24N 53°50' E 007°06'2211.8
2015-Apr-21 09:33N 53°45' E 006°30'1311.9
2015-Apr-21 08:29N 53°42' E 006°10'1111.8
2015-Apr-21 07:33N 53°38' E 005°52'1211.8
2015-Apr-21 06:33N 53°35' E 005°33'1211.9
2015-Apr-21 05:33N 53°31' E 005°14'1111.1
2015-Apr-21 04:34N 53°27' E 004°57'1010.2
2015-Apr-21 03:33N 53°22' E 004°42'29 9.7
2015-Apr-21 00:33N 52°57' E 004°18'11 9.5
2015-Apr-20 23:25N 52°47' E 004°09'9 9.5
2015-Apr-20 22:31N 52°41' E 003°59'9 9.3
2015-Apr-20 21:33N 52°34' E 003°49'9 9.3
2015-Apr-20 20:32N 52°27' E 003°39'1010.0
2015-Apr-20 19:31N 52°20' E 003°27'1210.8
2015-Apr-20 18:27N 52°12' E 003°14'3611.9
2015-Apr-20 15:24N 51°44' E 002°36'1112.6
2015-Apr-20 14:33N 51°36' E 002°25'1212.6
2015-Apr-20 13:34N 51°26' E 002°14'1212.4
2015-Apr-20 12:34N 51°15' E 002°04'1312.7
2015-Apr-20 11:34N 51°07' E 001°49'1211.8
2015-Apr-20 10:34N 50°58' E 001°36'10 9.8
2015-Apr-20 09:33N 50°50' E 001°27'299 9.1
2015-Apr-19 00:33N 48°46' W 005°34'6 6.0
2015-Apr-18 23:33N 48°41' W 005°39'11 5.3
2015-Apr-18 21:33N 48°32' W 005°47'26 6.5
2015-Apr-18 17:33N 48°06' W 005°43'25310.8
2015-Apr-17 18:07N 43°52' W 005°40'610.9
2015-Apr-17 17:32N 43°46' W 005°41'1110.8
2015-Apr-17 16:33N 43°35' W 005°40'2 2.0
2015-Apr-17 15:31N 43°34' W 005°42'0 0.0
2015-Apr-17 14:25N 43°34' W 005°42'0 0.0
2015-Apr-17 12:19N 43°34' W 005°42'0 0.0
2015-Apr-17 11:31N 43°34' W 005°42'0 0.0
2015-Apr-17 10:25N 43°34' W 005°42'0 0.0
2015-Apr-17 09:14N 43°34' W 005°42'0 0.0
2015-Apr-17 06:30N 43°34' W 005°42'0 0.0
2015-Apr-17 05:30N 43°34' W 005°42'0 0.0
2015-Apr-17 04:30N 43°34' W 005°42'0 0.0
2015-Apr-17 03:30N 43°34' W 005°42'0 0.0
2015-Apr-17 02:30N 43°34' W 005°42'0 0.0
2015-Apr-17 01:30N 43°34' W 005°42'0 0.0
2015-Apr-17 00:30N 43°34' W 005°42'1 1.4
2015-Apr-16 23:33N 43°34' W 005°40'2 0.8
2015-Apr-16 21:03N 43°36' W 005°42'0 0.0
2015-Apr-16 20:33N 43°36' W 005°42'0 0.0
2015-Apr-16 19:33N 43°36' W 005°42'0 0.0
2015-Apr-16 16:33N 43°36' W 005°42'0 0.0
2015-Apr-16 13:27N 43°36' W 005°42'0 0.1
2015-Apr-16 12:33N 43°36' W 005°42'0 0.0
2015-Apr-16 11:27N 43°36' W 005°42'0 0.1
2015-Apr-16 10:27N 43°36' W 005°42'0 0.0
2015-Apr-16 09:34N 43°36' W 005°42'9 8.7
2015-Apr-16 08:33N 43°37' W 005°30'1111.0
2015-Apr-16 07:33N 43°38' W 005°15'  

Dump ship's entire track history